sensor_id;sensor_type;location;lat;lon;timestamp;P1;durP1;ratioP1;P2;durP2;ratioP2
24301;SDS011;12421;49.732;20.078;2023-07-29T00:00:25;5.20;;;2.90;;
24301;SDS011;12421;49.732;20.078;2023-07-29T00:10:51;5.30;;;2.90;;
24301;SDS011;12421;49.732;20.078;2023-07-29T00:20:54;8.80;;;3.10;;
24301;SDS011;12421;49.732;20.078;2023-07-29T00:31:01;5.80;;;2.60;;
24301;SDS011;12421;49.732;20.078;2023-07-29T00:41:05;5.10;;;2.40;;
24301;SDS011;12421;49.732;20.078;2023-07-29T00:51:10;8.40;;;2.70;;
24301;SDS011;12421;49.732;20.078;2023-07-29T01:01:35;6.90;;;3.00;;
24301;SDS011;12421;49.732;20.078;2023-07-29T01:22:01;6.50;;;2.60;;
24301;SDS011;12421;49.732;20.078;2023-07-29T01:32:11;5.70;;;2.10;;
24301;SDS011;12421;49.732;20.078;2023-07-29T01:42:18;7.00;;;2.70;;
24301;SDS011;12421;49.732;20.078;2023-07-29T01:52:22;4.30;;;2.90;;
24301;SDS011;12421;49.732;20.078;2023-07-29T02:02:28;6.20;;;2.60;;
24301;SDS011;12421;49.732;20.078;2023-07-29T02:12:33;7.00;;;2.30;;
24301;SDS011;12421;49.732;20.078;2023-07-29T02:22:37;5.00;;;2.30;;
24301;SDS011;12421;49.732;20.078;2023-07-29T02:32:41;6.40;;;2.50;;
24301;SDS011;12421;49.732;20.078;2023-07-29T02:42:46;6.30;;;3.00;;
24301;SDS011;12421;49.732;20.078;2023-07-29T02:52:50;4.40;;;2.50;;
24301;SDS011;12421;49.732;20.078;2023-07-29T03:02:53;4.60;;;2.30;;
24301;SDS011;12421;49.732;20.078;2023-07-29T03:12:57;5.90;;;2.90;;
24301;SDS011;12421;49.732;20.078;2023-07-29T03:23:02;6.30;;;2.30;;
24301;SDS011;12421;49.732;20.078;2023-07-29T03:33:08;4.50;;;2.50;;
24301;SDS011;12421;49.732;20.078;2023-07-29T03:43:12;4.50;;;2.70;;
24301;SDS011;12421;49.732;20.078;2023-07-29T03:53:17;4.40;;;2.40;;
24301;SDS011;12421;49.732;20.078;2023-07-29T04:03:21;5.80;;;2.80;;
24301;SDS011;12421;49.732;20.078;2023-07-29T04:13:27;4.20;;;2.70;;
24301;SDS011;12421;49.732;20.078;2023-07-29T04:23:31;6.90;;;3.20;;
24301;SDS011;12421;49.732;20.078;2023-07-29T04:33:36;7.50;;;2.70;;
24301;SDS011;12421;49.732;20.078;2023-07-29T04:43:39;6.80;;;3.10;;
24301;SDS011;12421;49.732;20.078;2023-07-29T04:53:43;4.90;;;2.60;;
24301;SDS011;12421;49.732;20.078;2023-07-29T05:03:47;6.00;;;3.30;;
24301;SDS011;12421;49.732;20.078;2023-07-29T05:13:50;7.00;;;3.10;;
24301;SDS011;12421;49.732;20.078;2023-07-29T05:23:56;8.40;;;3.80;;
24301;SDS011;12421;49.732;20.078;2023-07-29T05:44:28;4.80;;;2.90;;
24301;SDS011;12421;49.732;20.078;2023-07-29T05:54:33;4.60;;;2.80;;
24301;SDS011;12421;49.732;20.078;2023-07-29T06:04:37;5.30;;;2.80;;
24301;SDS011;12421;49.732;20.078;2023-07-29T06:14:41;3.30;;;2.40;;
24301;SDS011;12421;49.732;20.078;2023-07-29T06:24:45;5.50;;;2.80;;
24301;SDS011;12421;49.732;20.078;2023-07-29T06:34:49;5.40;;;2.40;;
24301;SDS011;12421;49.732;20.078;2023-07-29T06:44:55;2.70;;;1.90;;
24301;SDS011;12421;49.732;20.078;2023-07-29T06:54:58;3.00;;;1.90;;
24301;SDS011;12421;49.732;20.078;2023-07-29T07:05:01;3.00;;;2.00;;
24301;SDS011;12421;49.732;20.078;2023-07-29T07:15:04;5.30;;;2.20;;
24301;SDS011;12421;49.732;20.078;2023-07-29T07:25:08;4.30;;;2.30;;
24301;SDS011;12421;49.732;20.078;2023-07-29T07:35:12;2.70;;;1.60;;
24301;SDS011;12421;49.732;20.078;2023-07-29T07:45:17;6.20;;;1.60;;
24301;SDS011;12421;49.732;20.078;2023-07-29T07:55:21;3.40;;;1.30;;
24301;SDS011;12421;49.732;20.078;2023-07-29T08:05:24;2.30;;;1.40;;
24301;SDS011;12421;49.732;20.078;2023-07-29T08:15:28;3.20;;;1.20;;
24301;SDS011;12421;49.732;20.078;2023-07-29T08:25:31;1.80;;;1.00;;
24301;SDS011;12421;49.732;20.078;2023-07-29T08:35:35;2.20;;;1.00;;
24301;SDS011;12421;49.732;20.078;2023-07-29T08:45:38;2.30;;;1.10;;
24301;SDS011;12421;49.732;20.078;2023-07-29T08:55:43;2.80;;;1.30;;
24301;SDS011;12421;49.732;20.078;2023-07-29T09:05:47;3.30;;;1.90;;
24301;SDS011;12421;49.732;20.078;2023-07-29T09:15:53;4.30;;;1.70;;
24301;SDS011;12421;49.732;20.078;2023-07-29T09:26:02;12.70;;;1.90;;
24301;SDS011;12421;49.732;20.078;2023-07-29T09:36:09;2.50;;;1.30;;
24301;SDS011;12421;49.732;20.078;2023-07-29T09:46:13;3.40;;;1.50;;
24301;SDS011;12421;49.732;20.078;2023-07-29T09:56:16;3.20;;;1.40;;
24301;SDS011;12421;49.732;20.078;2023-07-29T10:06:20;5.80;;;2.20;;
24301;SDS011;12421;49.732;20.078;2023-07-29T10:16:24;4.10;;;1.50;;
24301;SDS011;12421;49.732;20.078;2023-07-29T10:26:29;3.10;;;1.80;;
24301;SDS011;12421;49.732;20.078;2023-07-29T10:36:36;5.90;;;1.30;;
24301;SDS011;12421;49.732;20.078;2023-07-29T10:46:40;2.60;;;1.30;;
24301;SDS011;12421;49.732;20.078;2023-07-29T10:56:48;2.90;;;1.30;;
24301;SDS011;12421;49.732;20.078;2023-07-29T11:17:14;2.90;;;1.20;;
24301;SDS011;12421;49.732;20.078;2023-07-29T11:27:19;1.70;;;0.90;;
24301;SDS011;12421;49.732;20.078;2023-07-29T11:37:23;1.90;;;1.00;;
24301;SDS011;12421;49.732;20.078;2023-07-29T11:47:26;2.00;;;0.90;;
24301;SDS011;12421;49.732;20.078;2023-07-29T11:57:30;1.50;;;0.90;;
24301;SDS011;12421;49.732;20.078;2023-07-29T12:07:39;2.40;;;1.20;;
24301;SDS011;12421;49.732;20.078;2023-07-29T12:17:44;4.80;;;1.20;;
24301;SDS011;12421;49.732;20.078;2023-07-29T12:27:48;3.50;;;0.80;;
24301;SDS011;12421;49.732;20.078;2023-07-29T12:37:58;2.80;;;1.10;;
24301;SDS011;12421;49.732;20.078;2023-07-29T12:48:02;4.40;;;1.60;;
24301;SDS011;12421;49.732;20.078;2023-07-29T12:58:06;7.20;;;3.40;;
24301;SDS011;12421;49.732;20.078;2023-07-29T13:08:10;6.50;;;5.50;;
24301;SDS011;12421;49.732;20.078;2023-07-29T13:18:14;19.70;;;8.50;;
24301;SDS011;12421;49.732;20.078;2023-07-29T13:28:17;6.20;;;4.50;;
24301;SDS011;12421;49.732;20.078;2023-07-29T13:38:21;3.50;;;1.50;;
24301;SDS011;12421;49.732;20.078;2023-07-29T13:48:25;6.10;;;3.00;;
24301;SDS011;12421;49.732;20.078;2023-07-29T13:58:29;5.10;;;2.70;;
24301;SDS011;12421;49.732;20.078;2023-07-29T14:08:32;5.20;;;3.00;;
24301;SDS011;12421;49.732;20.078;2023-07-29T14:18:35;6.20;;;2.70;;
24301;SDS011;12421;49.732;20.078;2023-07-29T14:28:41;4.30;;;2.50;;
24301;SDS011;12421;49.732;20.078;2023-07-29T14:38:47;7.60;;;2.70;;
24301;SDS011;12421;49.732;20.078;2023-07-29T14:48:52;5.10;;;2.70;;
24301;SDS011;12421;49.732;20.078;2023-07-29T14:58:56;5.50;;;3.00;;
24301;SDS011;12421;49.732;20.078;2023-07-29T15:09:00;4.90;;;2.70;;
24301;SDS011;12421;49.732;20.078;2023-07-29T15:19:04;6.20;;;3.70;;
24301;SDS011;12421;49.732;20.078;2023-07-29T15:29:08;3.30;;;2.20;;
24301;SDS011;12421;49.732;20.078;2023-07-29T15:39:12;2.30;;;1.40;;
24301;SDS011;12421;49.732;20.078;2023-07-29T15:49:16;4.70;;;2.40;;
24301;SDS011;12421;49.732;20.078;2023-07-29T15:59:20;4.70;;;2.20;;
24301;SDS011;12421;49.732;20.078;2023-07-29T16:09:24;3.50;;;2.00;;
24301;SDS011;12421;49.732;20.078;2023-07-29T16:19:28;4.10;;;2.40;;
24301;SDS011;12421;49.732;20.078;2023-07-29T16:29:33;5.40;;;2.30;;
24301;SDS011;12421;49.732;20.078;2023-07-29T16:39:37;3.30;;;1.80;;
24301;SDS011;12421;49.732;20.078;2023-07-29T16:49:41;4.20;;;2.60;;
24301;SDS011;12421;49.732;20.078;2023-07-29T16:59:44;3.40;;;1.90;;
24301;SDS011;12421;49.732;20.078;2023-07-29T17:09:50;5.70;;;3.10;;
24301;SDS011;12421;49.732;20.078;2023-07-29T17:19:58;7.20;;;3.50;;
24301;SDS011;12421;49.732;20.078;2023-07-29T17:30:03;6.90;;;3.00;;
24301;SDS011;12421;49.732;20.078;2023-07-29T17:40:07;6.30;;;4.40;;
24301;SDS011;12421;49.732;20.078;2023-07-29T17:50:11;9.80;;;5.80;;
24301;SDS011;12421;49.732;20.078;2023-07-29T18:00:15;7.30;;;3.30;;
24301;SDS011;12421;49.732;20.078;2023-07-29T18:10:19;8.90;;;4.40;;
24301;SDS011;12421;49.732;20.078;2023-07-29T18:20:24;7.90;;;3.80;;
24301;SDS011;12421;49.732;20.078;2023-07-29T18:30:28;6.10;;;3.70;;
24301;SDS011;12421;49.732;20.078;2023-07-29T18:40:31;7.10;;;4.40;;
24301;SDS011;12421;49.732;20.078;2023-07-29T18:50:38;10.40;;;5.90;;
24301;SDS011;12421;49.732;20.078;2023-07-29T19:00:42;18.60;;;9.30;;
24301;SDS011;12421;49.732;20.078;2023-07-29T19:10:52;11.90;;;5.50;;
24301;SDS011;12421;49.732;20.078;2023-07-29T19:20:56;7.80;;;5.50;;
24301;SDS011;12421;49.732;20.078;2023-07-29T19:30:59;7.40;;;4.40;;
24301;SDS011;12421;49.732;20.078;2023-07-29T19:41:04;11.60;;;5.60;;
24301;SDS011;12421;49.732;20.078;2023-07-29T19:51:07;9.30;;;5.20;;
24301;SDS011;12421;49.732;20.078;2023-07-29T20:01:11;12.60;;;7.40;;
24301;SDS011;12421;49.732;20.078;2023-07-29T20:11:18;9.70;;;6.30;;
24301;SDS011;12421;49.732;20.078;2023-07-29T20:21:21;12.30;;;6.20;;
24301;SDS011;12421;49.732;20.078;2023-07-29T20:41:57;13.10;;;7.50;;
24301;SDS011;12421;49.732;20.078;2023-07-29T20:52:03;15.80;;;6.30;;
24301;SDS011;12421;49.732;20.078;2023-07-29T21:02:07;19.70;;;8.60;;
24301;SDS011;12421;49.732;20.078;2023-07-29T21:12:10;14.50;;;7.60;;
24301;SDS011;12421;49.732;20.078;2023-07-29T21:22:14;13.50;;;7.30;;
24301;SDS011;12421;49.732;20.078;2023-07-29T21:32:18;12.80;;;6.10;;
24301;SDS011;12421;49.732;20.078;2023-07-29T21:42:22;14.80;;;5.30;;
24301;SDS011;12421;49.732;20.078;2023-07-29T21:52:27;13.60;;;5.40;;
24301;SDS011;12421;49.732;20.078;2023-07-29T22:02:31;11.40;;;6.00;;
24301;SDS011;12421;49.732;20.078;2023-07-29T22:12:35;11.40;;;4.50;;
24301;SDS011;12421;49.732;20.078;2023-07-29T22:22:40;10.20;;;4.90;;
24301;SDS011;12421;49.732;20.078;2023-07-29T22:32:43;15.30;;;5.50;;
24301;SDS011;12421;49.732;20.078;2023-07-29T22:42:50;10.70;;;5.90;;
24301;SDS011;12421;49.732;20.078;2023-07-29T22:52:53;11.90;;;5.00;;
24301;SDS011;12421;49.732;20.078;2023-07-29T23:02:57;10.60;;;5.50;;
24301;SDS011;12421;49.732;20.078;2023-07-29T23:13:01;8.30;;;5.20;;
24301;SDS011;12421;49.732;20.078;2023-07-29T23:23:06;9.30;;;4.20;;
24301;SDS011;12421;49.732;20.078;2023-07-29T23:33:09;10.50;;;3.70;;
24301;SDS011;12421;49.732;20.078;2023-07-29T23:43:13;9.00;;;3.80;;
24301;SDS011;12421;49.732;20.078;2023-07-29T23:53:16;7.70;;;3.00;;
